sensor_id;sensor_type;location;lat;lon;timestamp;P1;durP1;ratioP1;P2;durP2;ratioP2
57720;SDS011;43562;43.064;0.160;2022-12-18T00:01:37;16.48;;;8.85;;
57720;SDS011;43562;43.064;0.160;2022-12-18T00:04:04;93.78;;;34.97;;
57720;SDS011;43562;43.064;0.160;2022-12-18T00:06:30;28.73;;;13.77;;
57720;SDS011;43562;43.064;0.160;2022-12-18T00:08:58;21.55;;;11.85;;
57720;SDS011;43562;43.064;0.160;2022-12-18T00:11:25;14.90;;;9.52;;
57720;SDS011;43562;43.064;0.160;2022-12-18T00:13:52;18.33;;;10.55;;
57720;SDS011;43562;43.064;0.160;2022-12-18T00:16:19;5.53;;;4.95;;
57720;SDS011;43562;43.064;0.160;2022-12-18T00:18:46;43.00;;;21.63;;
57720;SDS011;43562;43.064;0.160;2022-12-18T00:21:12;25.70;;;14.07;;
57720;SDS011;43562;43.064;0.160;2022-12-18T00:23:39;31.45;;;15.88;;
57720;SDS011;43562;43.064;0.160;2022-12-18T00:26:07;25.38;;;12.63;;
57720;SDS011;43562;43.064;0.160;2022-12-18T00:28:34;19.42;;;11.68;;
57720;SDS011;43562;43.064;0.160;2022-12-18T00:31:04;21.40;;;11.50;;
57720;SDS011;43562;43.064;0.160;2022-12-18T00:33:30;9.98;;;6.95;;
57720;SDS011;43562;43.064;0.160;2022-12-18T00:38:29;4.25;;;3.88;;
57720;SDS011;43562;43.064;0.160;2022-12-18T00:40:55;7.93;;;5.80;;
57720;SDS011;43562;43.064;0.160;2022-12-18T00:43:21;39.20;;;16.42;;
57720;SDS011;43562;43.064;0.160;2022-12-18T00:45:47;15.30;;;8.00;;
57720;SDS011;43562;43.064;0.160;2022-12-18T00:48:13;27.50;;;10.65;;
57720;SDS011;43562;43.064;0.160;2022-12-18T00:50:39;19.90;;;9.23;;
57720;SDS011;43562;43.064;0.160;2022-12-18T00:53:05;10.95;;;7.30;;
57720;SDS011;43562;43.064;0.160;2022-12-18T00:55:32;8.48;;;6.30;;
57720;SDS011;43562;43.064;0.160;2022-12-18T00:57:58;8.13;;;5.47;;
57720;SDS011;43562;43.064;0.160;2022-12-18T01:00:24;13.02;;;8.00;;
57720;SDS011;43562;43.064;0.160;2022-12-18T01:02:50;52.83;;;20.02;;
57720;SDS011;43562;43.064;0.160;2022-12-18T01:05:16;66.55;;;26.10;;
57720;SDS011;43562;43.064;0.160;2022-12-18T01:07:42;34.45;;;17.00;;
57720;SDS011;43562;43.064;0.160;2022-12-18T01:10:09;13.48;;;7.80;;
57720;SDS011;43562;43.064;0.160;2022-12-18T01:12:37;23.88;;;10.05;;
57720;SDS011;43562;43.064;0.160;2022-12-18T01:15:03;19.52;;;9.90;;
57720;SDS011;43562;43.064;0.160;2022-12-18T01:17:30;20.85;;;9.63;;
57720;SDS011;43562;43.064;0.160;2022-12-18T01:19:56;15.52;;;8.82;;
57720;SDS011;43562;43.064;0.160;2022-12-18T01:22:22;21.63;;;11.40;;
57720;SDS011;43562;43.064;0.160;2022-12-18T01:24:48;31.63;;;16.85;;
57720;SDS011;43562;43.064;0.160;2022-12-18T01:27:14;16.85;;;10.35;;
57720;SDS011;43562;43.064;0.160;2022-12-18T01:29:40;55.97;;;24.60;;
57720;SDS011;43562;43.064;0.160;2022-12-18T01:32:07;36.38;;;18.58;;
57720;SDS011;43562;43.064;0.160;2022-12-18T01:34:34;29.92;;;16.70;;
57720;SDS011;43562;43.064;0.160;2022-12-18T01:37:02;11.95;;;8.65;;
57720;SDS011;43562;43.064;0.160;2022-12-18T01:39:28;6.32;;;5.65;;
57720;SDS011;43562;43.064;0.160;2022-12-18T01:41:54;4.57;;;4.18;;
57720;SDS011;43562;43.064;0.160;2022-12-18T01:47:13;5.38;;;4.88;;
57720;SDS011;43562;43.064;0.160;2022-12-18T01:49:41;6.22;;;4.97;;
57720;SDS011;43562;43.064;0.160;2022-12-18T01:52:07;5.53;;;5.13;;
57720;SDS011;43562;43.064;0.160;2022-12-18T01:54:33;7.38;;;6.78;;
57720;SDS011;43562;43.064;0.160;2022-12-18T01:56:59;5.40;;;4.97;;
57720;SDS011;43562;43.064;0.160;2022-12-18T01:59:26;5.13;;;4.38;;
57720;SDS011;43562;43.064;0.160;2022-12-18T02:01:52;4.55;;;4.35;;
57720;SDS011;43562;43.064;0.160;2022-12-18T02:04:20;3.72;;;3.53;;
57720;SDS011;43562;43.064;0.160;2022-12-18T02:06:46;5.78;;;5.47;;
57720;SDS011;43562;43.064;0.160;2022-12-18T02:09:14;4.28;;;4.07;;
57720;SDS011;43562;43.064;0.160;2022-12-18T02:16:46;6.43;;;6.07;;
57720;SDS011;43562;43.064;0.160;2022-12-18T02:24:35;4.65;;;4.35;;
57720;SDS011;43562;43.064;0.160;2022-12-18T02:27:05;4.80;;;3.40;;
57720;SDS011;43562;43.064;0.160;2022-12-18T02:29:39;4.85;;;4.53;;
57720;SDS011;43562;43.064;0.160;2022-12-18T02:32:08;3.45;;;3.25;;
57720;SDS011;43562;43.064;0.160;2022-12-18T02:34:35;3.60;;;3.50;;
57720;SDS011;43562;43.064;0.160;2022-12-18T02:37:04;3.70;;;3.50;;
57720;SDS011;43562;43.064;0.160;2022-12-18T02:39:32;4.15;;;3.95;;
57720;SDS011;43562;43.064;0.160;2022-12-18T02:41:58;5.15;;;4.65;;
57720;SDS011;43562;43.064;0.160;2022-12-18T02:44:27;5.38;;;5.07;;
57720;SDS011;43562;43.064;0.160;2022-12-18T02:46:53;3.45;;;3.25;;
57720;SDS011;43562;43.064;0.160;2022-12-18T02:51:48;4.45;;;4.25;;
57720;SDS011;43562;43.064;0.160;2022-12-18T02:59:18;4.78;;;4.57;;
57720;SDS011;43562;43.064;0.160;2022-12-18T03:04:26;3.55;;;3.17;;
57720;SDS011;43562;43.064;0.160;2022-12-18T03:06:54;3.92;;;3.72;;
57720;SDS011;43562;43.064;0.160;2022-12-18T03:09:22;4.00;;;3.83;;
57720;SDS011;43562;43.064;0.160;2022-12-18T03:11:53;4.97;;;3.05;;
57720;SDS011;43562;43.064;0.160;2022-12-18T03:14:39;3.28;;;3.08;;
57720;SDS011;43562;43.064;0.160;2022-12-18T03:17:06;3.97;;;3.67;;
57720;SDS011;43562;43.064;0.160;2022-12-18T03:19:33;4.45;;;4.18;;
57720;SDS011;43562;43.064;0.160;2022-12-18T03:22:00;5.63;;;5.20;;
57720;SDS011;43562;43.064;0.160;2022-12-18T03:24:27;4.15;;;3.92;;
57720;SDS011;43562;43.064;0.160;2022-12-18T03:26:57;7.05;;;5.47;;
57720;SDS011;43562;43.064;0.160;2022-12-18T03:29:25;6.03;;;5.53;;
57720;SDS011;43562;43.064;0.160;2022-12-18T03:31:56;7.55;;;6.95;;
57720;SDS011;43562;43.064;0.160;2022-12-18T03:34:26;4.47;;;4.07;;
57720;SDS011;43562;43.064;0.160;2022-12-18T03:36:55;3.85;;;3.55;;
57720;SDS011;43562;43.064;0.160;2022-12-18T03:39:21;5.93;;;4.90;;
57720;SDS011;43562;43.064;0.160;2022-12-18T03:41:50;7.35;;;6.50;;
57720;SDS011;43562;43.064;0.160;2022-12-18T03:44:28;9.38;;;7.22;;
57720;SDS011;43562;43.064;0.160;2022-12-18T03:47:08;3.70;;;3.40;;
57720;SDS011;43562;43.064;0.160;2022-12-18T03:49:40;4.22;;;4.03;;
57720;SDS011;43562;43.064;0.160;2022-12-18T03:52:13;3.58;;;3.38;;
57720;SDS011;43562;43.064;0.160;2022-12-18T03:54:42;3.60;;;3.40;;
57720;SDS011;43562;43.064;0.160;2022-12-18T03:57:11;4.35;;;2.45;;
57720;SDS011;43562;43.064;0.160;2022-12-18T03:59:39;4.00;;;3.70;;
57720;SDS011;43562;43.064;0.160;2022-12-18T04:02:06;3.58;;;3.38;;
57720;SDS011;43562;43.064;0.160;2022-12-18T04:04:34;2.67;;;2.58;;
57720;SDS011;43562;43.064;0.160;2022-12-18T04:07:00;2.88;;;2.67;;
57720;SDS011;43562;43.064;0.160;2022-12-18T04:09:27;3.67;;;3.38;;
57720;SDS011;43562;43.064;0.160;2022-12-18T04:11:54;3.05;;;2.95;;
57720;SDS011;43562;43.064;0.160;2022-12-18T04:14:20;3.10;;;3.00;;
57720;SDS011;43562;43.064;0.160;2022-12-18T04:16:46;3.13;;;3.03;;
57720;SDS011;43562;43.064;0.160;2022-12-18T04:19:12;3.03;;;2.92;;
57720;SDS011;43562;43.064;0.160;2022-12-18T04:21:38;2.63;;;2.53;;
57720;SDS011;43562;43.064;0.160;2022-12-18T04:24:04;2.72;;;2.63;;
57720;SDS011;43562;43.064;0.160;2022-12-18T04:26:30;4.18;;;3.97;;
57720;SDS011;43562;43.064;0.160;2022-12-18T04:28:56;3.83;;;3.65;;
57720;SDS011;43562;43.064;0.160;2022-12-18T04:31:22;2.72;;;2.63;;
57720;SDS011;43562;43.064;0.160;2022-12-18T04:33:48;3.58;;;3.47;;
57720;SDS011;43562;43.064;0.160;2022-12-18T04:36:15;4.00;;;3.90;;
57720;SDS011;43562;43.064;0.160;2022-12-18T04:38:41;2.97;;;2.88;;
57720;SDS011;43562;43.064;0.160;2022-12-18T04:41:07;3.38;;;3.28;;
57720;SDS011;43562;43.064;0.160;2022-12-18T04:43:33;2.92;;;2.83;;
57720;SDS011;43562;43.064;0.160;2022-12-18T04:46:05;2.78;;;2.67;;
57720;SDS011;43562;43.064;0.160;2022-12-18T04:48:32;2.80;;;2.60;;
57720;SDS011;43562;43.064;0.160;2022-12-18T04:50:58;3.53;;;3.22;;
57720;SDS011;43562;43.064;0.160;2022-12-18T04:53:24;3.58;;;3.40;;
57720;SDS011;43562;43.064;0.160;2022-12-18T04:55:51;2.17;;;2.08;;
57720;SDS011;43562;43.064;0.160;2022-12-18T04:58:17;2.60;;;2.50;;
57720;SDS011;43562;43.064;0.160;2022-12-18T05:00:43;3.10;;;3.00;;
57720;SDS011;43562;43.064;0.160;2022-12-18T05:03:09;3.10;;;2.90;;
57720;SDS011;43562;43.064;0.160;2022-12-18T05:05:35;2.97;;;2.88;;
57720;SDS011;43562;43.064;0.160;2022-12-18T05:08:01;3.67;;;3.47;;
57720;SDS011;43562;43.064;0.160;2022-12-18T05:10:27;3.03;;;2.92;;
57720;SDS011;43562;43.064;0.160;2022-12-18T05:12:53;3.63;;;3.42;;
57720;SDS011;43562;43.064;0.160;2022-12-18T05:15:31;5.03;;;4.72;;
57720;SDS011;43562;43.064;0.160;2022-12-18T05:17:58;3.22;;;3.13;;
57720;SDS011;43562;43.064;0.160;2022-12-18T05:20:24;5.43;;;3.00;;
57720;SDS011;43562;43.064;0.160;2022-12-18T05:22:51;3.38;;;3.17;;
57720;SDS011;43562;43.064;0.160;2022-12-18T05:25:17;3.45;;;3.25;;
57720;SDS011;43562;43.064;0.160;2022-12-18T05:27:43;3.58;;;3.38;;
57720;SDS011;43562;43.064;0.160;2022-12-18T05:30:10;3.60;;;3.40;;
57720;SDS011;43562;43.064;0.160;2022-12-18T05:32:36;3.53;;;3.33;;
57720;SDS011;43562;43.064;0.160;2022-12-18T05:35:03;4.15;;;3.95;;
57720;SDS011;43562;43.064;0.160;2022-12-18T05:37:29;3.78;;;3.58;;
57720;SDS011;43562;43.064;0.160;2022-12-18T05:39:56;3.78;;;3.58;;
57720;SDS011;43562;43.064;0.160;2022-12-18T05:42:22;4.53;;;4.30;;
57720;SDS011;43562;43.064;0.160;2022-12-18T05:44:48;4.15;;;3.95;;
57720;SDS011;43562;43.064;0.160;2022-12-18T05:47:14;4.10;;;3.90;;
57720;SDS011;43562;43.064;0.160;2022-12-18T05:49:40;4.47;;;4.25;;
57720;SDS011;43562;43.064;0.160;2022-12-18T05:52:06;4.45;;;4.15;;
57720;SDS011;43562;43.064;0.160;2022-12-18T05:54:32;4.70;;;4.40;;
57720;SDS011;43562;43.064;0.160;2022-12-18T05:56:58;4.07;;;3.88;;
57720;SDS011;43562;43.064;0.160;2022-12-18T05:59:24;3.10;;;3.00;;
57720;SDS011;43562;43.064;0.160;2022-12-18T06:01:50;5.20;;;4.90;;
57720;SDS011;43562;43.064;0.160;2022-12-18T06:04:16;4.70;;;4.47;;
57720;SDS011;43562;43.064;0.160;2022-12-18T06:06:42;4.60;;;4.30;;
57720;SDS011;43562;43.064;0.160;2022-12-18T06:09:09;4.45;;;4.25;;
57720;SDS011;43562;43.064;0.160;2022-12-18T06:11:35;4.82;;;4.60;;
57720;SDS011;43562;43.064;0.160;2022-12-18T06:14:02;4.70;;;4.45;;
57720;SDS011;43562;43.064;0.160;2022-12-18T06:16:29;4.13;;;3.83;;
57720;SDS011;43562;43.064;0.160;2022-12-18T06:18:59;3.83;;;3.63;;
57720;SDS011;43562;43.064;0.160;2022-12-18T06:21:26;4.65;;;4.25;;
57720;SDS011;43562;43.064;0.160;2022-12-18T06:23:52;4.68;;;4.47;;
57720;SDS011;43562;43.064;0.160;2022-12-18T06:26:18;4.10;;;3.90;;
57720;SDS011;43562;43.064;0.160;2022-12-18T06:28:44;4.00;;;3.80;;
57720;SDS011;43562;43.064;0.160;2022-12-18T06:31:11;4.15;;;3.90;;
57720;SDS011;43562;43.064;0.160;2022-12-18T06:33:37;4.60;;;4.40;;
57720;SDS011;43562;43.064;0.160;2022-12-18T06:36:05;3.60;;;3.40;;
57720;SDS011;43562;43.064;0.160;2022-12-18T06:38:32;3.70;;;3.55;;
57720;SDS011;43562;43.064;0.160;2022-12-18T06:40:58;3.22;;;3.13;;
57720;SDS011;43562;43.064;0.160;2022-12-18T06:43:25;4.00;;;3.80;;
57720;SDS011;43562;43.064;0.160;2022-12-18T06:45:57;4.97;;;4.68;;
57720;SDS011;43562;43.064;0.160;2022-12-18T06:48:23;5.32;;;4.85;;
57720;SDS011;43562;43.064;0.160;2022-12-18T06:50:49;5.15;;;4.85;;
57720;SDS011;43562;43.064;0.160;2022-12-18T06:53:15;6.05;;;5.65;;
57720;SDS011;43562;43.064;0.160;2022-12-18T06:55:41;4.65;;;4.35;;
57720;SDS011;43562;43.064;0.160;2022-12-18T06:58:07;5.55;;;5.15;;
57720;SDS011;43562;43.064;0.160;2022-12-18T07:00:33;5.53;;;5.13;;
57720;SDS011;43562;43.064;0.160;2022-12-18T07:02:59;5.30;;;4.95;;
57720;SDS011;43562;43.064;0.160;2022-12-18T07:05:25;4.38;;;4.15;;
57720;SDS011;43562;43.064;0.160;2022-12-18T07:07:51;5.70;;;5.43;;
57720;SDS011;43562;43.064;0.160;2022-12-18T07:10:18;5.18;;;4.88;;
57720;SDS011;43562;43.064;0.160;2022-12-18T07:12:44;4.97;;;4.68;;
57720;SDS011;43562;43.064;0.160;2022-12-18T07:15:10;5.43;;;5.13;;
57720;SDS011;43562;43.064;0.160;2022-12-18T07:17:36;4.47;;;4.28;;
57720;SDS011;43562;43.064;0.160;2022-12-18T07:20:02;4.28;;;4.03;;
57720;SDS011;43562;43.064;0.160;2022-12-18T07:22:28;5.20;;;4.80;;
57720;SDS011;43562;43.064;0.160;2022-12-18T07:24:54;5.10;;;4.75;;
57720;SDS011;43562;43.064;0.160;2022-12-18T07:27:21;5.95;;;5.53;;
57720;SDS011;43562;43.064;0.160;2022-12-18T07:29:47;8.10;;;6.65;;
57720;SDS011;43562;43.064;0.160;2022-12-18T07:32:13;12.18;;;10.30;;
57720;SDS011;43562;43.064;0.160;2022-12-18T07:34:40;4.95;;;4.65;;
57720;SDS011;43562;43.064;0.160;2022-12-18T07:37:06;6.40;;;5.80;;
57720;SDS011;43562;43.064;0.160;2022-12-18T07:39:32;7.05;;;6.40;;
57720;SDS011;43562;43.064;0.160;2022-12-18T07:41:58;7.72;;;7.10;;
57720;SDS011;43562;43.064;0.160;2022-12-18T07:44:43;8.05;;;7.45;;
57720;SDS011;43562;43.064;0.160;2022-12-18T07:47:09;7.38;;;6.75;;
57720;SDS011;43562;43.064;0.160;2022-12-18T07:49:35;6.65;;;6.25;;
57720;SDS011;43562;43.064;0.160;2022-12-18T07:52:01;5.60;;;5.30;;
57720;SDS011;43562;43.064;0.160;2022-12-18T07:54:27;7.47;;;6.78;;
57720;SDS011;43562;43.064;0.160;2022-12-18T07:56:54;10.20;;;7.57;;
57720;SDS011;43562;43.064;0.160;2022-12-18T07:59:20;8.02;;;6.93;;
57720;SDS011;43562;43.064;0.160;2022-12-18T08:01:46;5.53;;;5.03;;
57720;SDS011;43562;43.064;0.160;2022-12-18T08:04:12;6.32;;;5.82;;
57720;SDS011;43562;43.064;0.160;2022-12-18T08:06:38;5.15;;;4.85;;
57720;SDS011;43562;43.064;0.160;2022-12-18T08:09:04;6.20;;;5.75;;
57720;SDS011;43562;43.064;0.160;2022-12-18T08:11:30;6.05;;;5.65;;
57720;SDS011;43562;43.064;0.160;2022-12-18T08:13:57;6.47;;;5.97;;
57720;SDS011;43562;43.064;0.160;2022-12-18T08:16:23;6.28;;;5.82;;
57720;SDS011;43562;43.064;0.160;2022-12-18T08:18:51;6.20;;;5.80;;
57720;SDS011;43562;43.064;0.160;2022-12-18T08:21:19;6.80;;;6.30;;
57720;SDS011;43562;43.064;0.160;2022-12-18T08:23:48;6.63;;;6.18;;
57720;SDS011;43562;43.064;0.160;2022-12-18T08:26:14;5.88;;;5.47;;
57720;SDS011;43562;43.064;0.160;2022-12-18T08:28:40;6.97;;;6.28;;
57720;SDS011;43562;43.064;0.160;2022-12-18T08:31:06;6.82;;;6.13;;
57720;SDS011;43562;43.064;0.160;2022-12-18T08:33:33;7.68;;;6.78;;
57720;SDS011;43562;43.064;0.160;2022-12-18T08:35:59;6.15;;;5.68;;
57720;SDS011;43562;43.064;0.160;2022-12-18T08:38:26;8.35;;;7.55;;
57720;SDS011;43562;43.064;0.160;2022-12-18T08:41:01;6.15;;;5.65;;
57720;SDS011;43562;43.064;0.160;2022-12-18T08:43:28;6.05;;;5.60;;
57720;SDS011;43562;43.064;0.160;2022-12-18T08:46:12;5.88;;;5.40;;
57720;SDS011;43562;43.064;0.160;2022-12-18T08:48:38;5.57;;;5.18;;
57720;SDS011;43562;43.064;0.160;2022-12-18T08:51:04;6.15;;;5.65;;
57720;SDS011;43562;43.064;0.160;2022-12-18T08:53:31;5.57;;;5.10;;
57720;SDS011;43562;43.064;0.160;2022-12-18T08:55:57;5.57;;;5.18;;
57720;SDS011;43562;43.064;0.160;2022-12-18T08:58:23;5.75;;;5.28;;
57720;SDS011;43562;43.064;0.160;2022-12-18T09:00:49;6.47;;;4.93;;
57720;SDS011;43562;43.064;0.160;2022-12-18T09:03:16;5.55;;;3.60;;
57720;SDS011;43562;43.064;0.160;2022-12-18T09:05:43;4.60;;;4.20;;
57720;SDS011;43562;43.064;0.160;2022-12-18T09:08:09;6.80;;;4.28;;
57720;SDS011;43562;43.064;0.160;2022-12-18T09:10:40;8.43;;;6.90;;
57720;SDS011;43562;43.064;0.160;2022-12-18T09:13:07;5.20;;;4.72;;
57720;SDS011;43562;43.064;0.160;2022-12-18T09:15:33;5.28;;;4.88;;
57720;SDS011;43562;43.064;0.160;2022-12-18T09:17:59;8.27;;;7.47;;
57720;SDS011;43562;43.064;0.160;2022-12-18T09:20:25;8.80;;;7.75;;
57720;SDS011;43562;43.064;0.160;2022-12-18T09:22:53;5.60;;;5.10;;
57720;SDS011;43562;43.064;0.160;2022-12-18T09:25:19;5.60;;;5.05;;
57720;SDS011;43562;43.064;0.160;2022-12-18T09:27:46;5.18;;;4.72;;
57720;SDS011;43562;43.064;0.160;2022-12-18T09:30:13;5.40;;;4.75;;
57720;SDS011;43562;43.064;0.160;2022-12-18T09:32:39;5.13;;;4.72;;
57720;SDS011;43562;43.064;0.160;2022-12-18T09:35:05;4.50;;;4.20;;
57720;SDS011;43562;43.064;0.160;2022-12-18T09:37:31;4.63;;;4.22;;
57720;SDS011;43562;43.064;0.160;2022-12-18T09:39:57;4.47;;;4.07;;
57720;SDS011;43562;43.064;0.160;2022-12-18T09:42:23;4.47;;;4.07;;
57720;SDS011;43562;43.064;0.160;2022-12-18T09:44:50;3.75;;;3.55;;
57720;SDS011;43562;43.064;0.160;2022-12-18T09:47:30;3.88;;;3.55;;
57720;SDS011;43562;43.064;0.160;2022-12-18T09:50:01;4.45;;;4.05;;
57720;SDS011;43562;43.064;0.160;2022-12-18T09:52:31;4.72;;;3.95;;
57720;SDS011;43562;43.064;0.160;2022-12-18T09:57:33;7.72;;;6.00;;
57720;SDS011;43562;43.064;0.160;2022-12-18T10:00:08;21.30;;;11.63;;
57720;SDS011;43562;43.064;0.160;2022-12-18T10:02:37;4.40;;;3.30;;
57720;SDS011;43562;43.064;0.160;2022-12-18T10:05:37;14.73;;;9.75;;
57720;SDS011;43562;43.064;0.160;2022-12-18T10:08:01;3.33;;;3.13;;
57720;SDS011;43562;43.064;0.160;2022-12-18T10:13:09;3.60;;;3.40;;
57720;SDS011;43562;43.064;0.160;2022-12-18T10:15:41;11.60;;;6.63;;
57720;SDS011;43562;43.064;0.160;2022-12-18T10:20:46;3.08;;;2.95;;
57720;SDS011;43562;43.064;0.160;2022-12-18T10:26:05;3.50;;;3.30;;
57720;SDS011;43562;43.064;0.160;2022-12-18T10:28:32;3.22;;;3.03;;
57720;SDS011;43562;43.064;0.160;2022-12-18T10:30:58;2.97;;;2.55;;
57720;SDS011;43562;43.064;0.160;2022-12-18T10:33:27;4.03;;;3.83;;
57720;SDS011;43562;43.064;0.160;2022-12-18T10:35:54;3.28;;;3.08;;
57720;SDS011;43562;43.064;0.160;2022-12-18T10:38:24;3.80;;;3.50;;
57720;SDS011;43562;43.064;0.160;2022-12-18T10:40:52;4.45;;;4.15;;
57720;SDS011;43562;43.064;0.160;2022-12-18T10:43:20;3.90;;;3.38;;
57720;SDS011;43562;43.064;0.160;2022-12-18T10:46:00;4.13;;;3.83;;
57720;SDS011;43562;43.064;0.160;2022-12-18T10:48:26;4.85;;;4.45;;
57720;SDS011;43562;43.064;0.160;2022-12-18T10:50:53;5.07;;;4.78;;
57720;SDS011;43562;43.064;0.160;2022-12-18T10:53:22;7.97;;;7.18;;
57720;SDS011;43562;43.064;0.160;2022-12-18T10:55:49;5.82;;;5.53;;
57720;SDS011;43562;43.064;0.160;2022-12-18T10:58:24;5.03;;;4.63;;
57720;SDS011;43562;43.064;0.160;2022-12-18T11:01:04;4.87;;;4.53;;
57720;SDS011;43562;43.064;0.160;2022-12-18T11:06:04;6.10;;;5.70;;
57720;SDS011;43562;43.064;0.160;2022-12-18T11:08:30;5.10;;;4.70;;
57720;SDS011;43562;43.064;0.160;2022-12-18T11:10:56;5.80;;;5.40;;
57720;SDS011;43562;43.064;0.160;2022-12-18T11:13:23;5.70;;;5.18;;
57720;SDS011;43562;43.064;0.160;2022-12-18T11:15:50;7.03;;;6.43;;
57720;SDS011;43562;43.064;0.160;2022-12-18T11:18:17;5.70;;;5.25;;
57720;SDS011;43562;43.064;0.160;2022-12-18T11:20:49;6.53;;;5.93;;
57720;SDS011;43562;43.064;0.160;2022-12-18T11:23:16;4.60;;;4.28;;
57720;SDS011;43562;43.064;0.160;2022-12-18T11:25:42;3.92;;;3.63;;
57720;SDS011;43562;43.064;0.160;2022-12-18T11:28:26;3.83;;;3.53;;
57720;SDS011;43562;43.064;0.160;2022-12-18T11:34:04;3.72;;;3.53;;
57720;SDS011;43562;43.064;0.160;2022-12-18T11:36:41;14.02;;;7.00;;
57720;SDS011;43562;43.064;0.160;2022-12-18T11:44:38;3.50;;;3.30;;
57720;SDS011;43562;43.064;0.160;2022-12-18T11:47:26;3.22;;;3.03;;
57720;SDS011;43562;43.064;0.160;2022-12-18T11:49:55;14.07;;;7.80;;
57720;SDS011;43562;43.064;0.160;2022-12-18T11:52:26;44.10;;;20.95;;
57720;SDS011;43562;43.064;0.160;2022-12-18T11:54:58;5.32;;;4.82;;
57720;SDS011;43562;43.064;0.160;2022-12-18T12:08:04;3.10;;;2.97;;
57720;SDS011;43562;43.064;0.160;2022-12-18T12:13:23;3.05;;;2.85;;
57720;SDS011;43562;43.064;0.160;2022-12-18T12:21:12;3.10;;;2.75;;
57720;SDS011;43562;43.064;0.160;2022-12-18T12:26:19;2.90;;;2.70;;
57720;SDS011;43562;43.064;0.160;2022-12-18T12:28:52;4.10;;;3.80;;
57720;SDS011;43562;43.064;0.160;2022-12-18T12:33:49;3.28;;;2.85;;
57720;SDS011;43562;43.064;0.160;2022-12-18T12:38:47;3.25;;;2.92;;
57720;SDS011;43562;43.064;0.160;2022-12-18T12:41:17;3.42;;;3.22;;
57720;SDS011;43562;43.064;0.160;2022-12-18T12:44:04;2.88;;;2.70;;
57720;SDS011;43562;43.064;0.160;2022-12-18T12:46:32;2.42;;;2.30;;
57720;SDS011;43562;43.064;0.160;2022-12-18T12:49:02;3.38;;;2.92;;
57720;SDS011;43562;43.064;0.160;2022-12-18T12:51:34;3.42;;;3.13;;
57720;SDS011;43562;43.064;0.160;2022-12-18T12:54:01;2.20;;;2.10;;
57720;SDS011;43562;43.064;0.160;2022-12-18T13:09:24;2.65;;;2.55;;
57720;SDS011;43562;43.064;0.160;2022-12-18T13:11:50;2.85;;;2.75;;
57720;SDS011;43562;43.064;0.160;2022-12-18T13:14:38;3.88;;;3.67;;
57720;SDS011;43562;43.064;0.160;2022-12-18T13:19:40;3.10;;;2.90;;
57720;SDS011;43562;43.064;0.160;2022-12-18T13:22:19;2.90;;;2.80;;
57720;SDS011;43562;43.064;0.160;2022-12-18T13:24:46;2.83;;;2.72;;
57720;SDS011;43562;43.064;0.160;2022-12-18T13:29:57;2.47;;;2.38;;
57720;SDS011;43562;43.064;0.160;2022-12-18T13:32:24;3.17;;;3.08;;
57720;SDS011;43562;43.064;0.160;2022-12-18T13:37:39;2.53;;;2.43;;
57720;SDS011;43562;43.064;0.160;2022-12-18T13:42:52;2.75;;;2.65;;
57720;SDS011;43562;43.064;0.160;2022-12-18T13:45:37;2.67;;;2.57;;
57720;SDS011;43562;43.064;0.160;2022-12-18T13:48:04;3.20;;;3.00;;
57720;SDS011;43562;43.064;0.160;2022-12-18T13:50:31;2.80;;;2.70;;
57720;SDS011;43562;43.064;0.160;2022-12-18T13:52:59;2.63;;;2.53;;
57720;SDS011;43562;43.064;0.160;2022-12-18T13:55:25;2.53;;;2.30;;
57720;SDS011;43562;43.064;0.160;2022-12-18T13:57:57;2.20;;;2.10;;
57720;SDS011;43562;43.064;0.160;2022-12-18T14:00:29;2.35;;;2.25;;
57720;SDS011;43562;43.064;0.160;2022-12-18T14:02:56;2.42;;;2.33;;
57720;SDS011;43562;43.064;0.160;2022-12-18T14:05:30;2.88;;;2.78;;
57720;SDS011;43562;43.064;0.160;2022-12-18T14:08:14;2.50;;;2.40;;
57720;SDS011;43562;43.064;0.160;2022-12-18T14:10:41;2.63;;;2.53;;
57720;SDS011;43562;43.064;0.160;2022-12-18T14:13:08;2.13;;;2.03;;
57720;SDS011;43562;43.064;0.160;2022-12-18T14:15:42;2.30;;;2.20;;
57720;SDS011;43562;43.064;0.160;2022-12-18T14:20:44;2.50;;;2.40;;
57720;SDS011;43562;43.064;0.160;2022-12-18T14:25:51;2.08;;;1.98;;
57720;SDS011;43562;43.064;0.160;2022-12-18T14:28:17;2.22;;;2.13;;
57720;SDS011;43562;43.064;0.160;2022-12-18T14:30:44;2.60;;;2.42;;
57720;SDS011;43562;43.064;0.160;2022-12-18T14:33:12;2.35;;;2.25;;
57720;SDS011;43562;43.064;0.160;2022-12-18T14:35:40;2.15;;;2.05;;
57720;SDS011;43562;43.064;0.160;2022-12-18T14:38:10;2.80;;;2.70;;
57720;SDS011;43562;43.064;0.160;2022-12-18T14:40:37;2.40;;;2.30;;
57720;SDS011;43562;43.064;0.160;2022-12-18T14:43:03;3.28;;;2.80;;
57720;SDS011;43562;43.064;0.160;2022-12-18T14:45:39;2.50;;;2.40;;
57720;SDS011;43562;43.064;0.160;2022-12-18T14:48:06;2.50;;;2.40;;
57720;SDS011;43562;43.064;0.160;2022-12-18T14:50:33;2.65;;;2.47;;
57720;SDS011;43562;43.064;0.160;2022-12-18T14:52:59;2.17;;;2.05;;
57720;SDS011;43562;43.064;0.160;2022-12-18T14:55:25;4.38;;;3.35;;
57720;SDS011;43562;43.064;0.160;2022-12-18T14:57:52;3.45;;;3.15;;
57720;SDS011;43562;43.064;0.160;2022-12-18T15:00:23;3.58;;;3.13;;
57720;SDS011;43562;43.064;0.160;2022-12-18T15:02:53;2.40;;;2.30;;
57720;SDS011;43562;43.064;0.160;2022-12-18T15:05:21;2.78;;;2.45;;
57720;SDS011;43562;43.064;0.160;2022-12-18T15:07:51;3.53;;;3.33;;
57720;SDS011;43562;43.064;0.160;2022-12-18T15:12:47;2.90;;;2.70;;
57720;SDS011;43562;43.064;0.160;2022-12-18T15:17:59;3.08;;;2.88;;
57720;SDS011;43562;43.064;0.160;2022-12-18T15:20:25;2.50;;;2.38;;
57720;SDS011;43562;43.064;0.160;2022-12-18T15:22:52;3.78;;;3.45;;
57720;SDS011;43562;43.064;0.160;2022-12-18T15:25:27;7.72;;;5.35;;
57720;SDS011;43562;43.064;0.160;2022-12-18T15:27:55;6.47;;;5.35;;
57720;SDS011;43562;43.064;0.160;2022-12-18T15:30:22;3.10;;;2.58;;
57720;SDS011;43562;43.064;0.160;2022-12-18T15:32:49;3.30;;;3.10;;
57720;SDS011;43562;43.064;0.160;2022-12-18T15:35:20;3.47;;;3.17;;
57720;SDS011;43562;43.064;0.160;2022-12-18T15:37:46;2.95;;;2.75;;
57720;SDS011;43562;43.064;0.160;2022-12-18T15:40:16;3.03;;;2.83;;
57720;SDS011;43562;43.064;0.160;2022-12-18T15:42:43;2.50;;;2.38;;
57720;SDS011;43562;43.064;0.160;2022-12-18T15:45:28;5.05;;;4.57;;
57720;SDS011;43562;43.064;0.160;2022-12-18T15:47:54;2.47;;;2.38;;
57720;SDS011;43562;43.064;0.160;2022-12-18T15:50:21;5.05;;;4.32;;
57720;SDS011;43562;43.064;0.160;2022-12-18T15:52:48;3.92;;;3.55;;
57720;SDS011;43562;43.064;0.160;2022-12-18T15:55:15;8.48;;;6.78;;
57720;SDS011;43562;43.064;0.160;2022-12-18T15:58:00;5.72;;;4.57;;
57720;SDS011;43562;43.064;0.160;2022-12-18T16:00:26;11.30;;;6.82;;
57720;SDS011;43562;43.064;0.160;2022-12-18T16:02:53;14.80;;;10.07;;
57720;SDS011;43562;43.064;0.160;2022-12-18T16:05:19;3.95;;;3.65;;
57720;SDS011;43562;43.064;0.160;2022-12-18T16:07:46;9.38;;;7.20;;
57720;SDS011;43562;43.064;0.160;2022-12-18T16:10:14;4.82;;;4.35;;
57720;SDS011;43562;43.064;0.160;2022-12-18T16:12:40;4.88;;;4.45;;
57720;SDS011;43562;43.064;0.160;2022-12-18T16:15:07;4.45;;;4.05;;
57720;SDS011;43562;43.064;0.160;2022-12-18T16:17:34;4.65;;;4.00;;
57720;SDS011;43562;43.064;0.160;2022-12-18T16:20:00;4.10;;;3.70;;
57720;SDS011;43562;43.064;0.160;2022-12-18T16:22:27;3.00;;;2.80;;
57720;SDS011;43562;43.064;0.160;2022-12-18T16:24:53;3.60;;;3.30;;
57720;SDS011;43562;43.064;0.160;2022-12-18T16:27:20;3.70;;;3.40;;
57720;SDS011;43562;43.064;0.160;2022-12-18T16:29:47;3.33;;;3.03;;
57720;SDS011;43562;43.064;0.160;2022-12-18T16:32:14;5.63;;;5.10;;
57720;SDS011;43562;43.064;0.160;2022-12-18T16:34:41;6.40;;;5.80;;
57720;SDS011;43562;43.064;0.160;2022-12-18T16:37:08;6.35;;;4.35;;
57720;SDS011;43562;43.064;0.160;2022-12-18T16:39:34;20.90;;;12.25;;